Time;durP1;ratioP1;P1;durP2;ratioP2;P2;SDS_P1;SDS_P2;PMS_P1;PMS_P2;Temp;Humidity;BMP_temperature;BMP_pressure;BME280_temperature;BME280_humidity;BME280_pressure;Samples;Min_cycle;Max_cycle;Signal;HPM_P1;HPM_P2
2022/05/10 15:04:08;;;;;;;5.90;2.55;;;;;;;;;;4964317;28;20473;-45
2022/05/10 15:06:37;;;;;;;9.98;2.90;;;;;;;;;;4790046;28;83011;-45
2022/05/10 15:09:32;;;;;;;7.28;2.80;;;20.20;99.90;;;;;;5081140;28;20067;-50
2022/05/10 15:14:46;;;;;;;8.63;2.58;;;21.50;99.90;;;;;;5077519;28;20032;-46
2022/05/10 15:17:16;;;;;;;9.30;2.60;;;21.60;99.90;;;;;;5078925;28;20048;-45
2022/05/10 15:19:44;;;;;;;5.82;2.47;;;21.60;99.90;;;;;;5064704;28;20037;-45
2022/05/10 15:22:12;;;;;;;;;;;21.70;99.90;;;;;;5059203;28;20530;-46
2022/05/10 15:24:40;;;;;;;6.47;2.33;;;21.70;99.90;;;;;;5057870;28;20402;-43
2022/05/10 15:27:11;;;;;;;7.07;2.08;;;21.70;99.90;;;;;;5057017;28;20434;-47
2022/05/10 15:29:40;;;;;;;8.43;2.10;;;21.80;99.90;;;;;;5060300;28;20063;-45
2022/05/10 15:32:09;;;;;;;6.63;2.30;;;21.80;99.90;;;;;;5055329;28;20294;-45
2022/05/10 15:34:43;;;;;;;10.00;2.30;;;21.80;99.90;;;;;;5059871;28;20447;-46
2022/05/10 15:37:16;;;;;;;9.52;2.40;;;21.80;99.90;;;;;;5056263;28;20066;-44
2022/05/10 15:39:44;;;;;;;6.03;2.20;;;21.80;99.90;;;;;;5058918;28;20059;-47
2022/05/10 15:42:24;;;;;;;6.57;2.28;;;21.80;99.90;;;;;;5058649;28;20040;-46
2022/05/10 15:44:52;;;;;;;10.30;2.17;;;21.80;99.90;;;;;;5058854;28;20056;-41
2022/05/10 15:47:23;;;;;;;5.45;2.10;;;21.80;99.90;;;;;;5059655;28;20057;-46
2022/05/10 15:49:58;;;;;;;11.70;2.17;;;21.90;99.90;;;;;;5058002;28;20063;-41
2022/05/10 15:52:27;;;;;;;6.35;2.10;;;21.90;99.90;;;;;;5040621;28;20068;-46
2022/05/10 15:54:54;;;;;;;8.60;1.90;;;21.90;99.90;;;;;;5058497;28;20044;-49
2022/05/10 15:57:22;;;;;;;5.47;2.15;;;21.90;99.90;;;;;;5058410;28;20555;-44
2022/05/10 15:59:51;;;;;;;4.82;2.20;;;21.90;99.90;;;;;;5059393;28;20055;-46
2022/05/10 16:02:20;;;;;;;5.88;1.80;;;21.80;99.90;;;;;;5059039;28;20040;-45
2022/05/10 16:04:53;;;;;;;6.75;2.30;;;21.80;99.90;;;;;;5027079;27;20049;-50
2022/05/10 16:07:22;;;;;;;6.35;1.73;;;21.80;99.90;;;;;;4989851;28;20065;-50
2022/05/10 16:09:49;;;;;;;6.15;1.70;;;21.80;99.90;;;;;;5038162;28;20056;-47
2022/05/10 16:12:17;;;;;;;9.30;2.08;;;21.80;99.90;;;;;;5038341;28;20447;-51
2022/05/10 16:14:45;;;;;;;5.68;1.67;;;21.70;99.90;;;;;;5036414;28;20041;-50
2022/05/10 16:17:12;;;;;;;12.65;1.70;;;21.70;99.90;;;;;;5037802;28;20045;-53
2022/05/10 16:20:04;;;;;;;9.82;2.10;;;21.70;99.90;;;;;;5028993;28;20419;-50
2022/05/10 16:22:32;;;;;;;6.20;1.67;;;21.70;99.90;;;;;;5023665;28;20061;-54
2022/05/10 16:25:00;;;;;;;11.70;1.90;;;21.70;99.90;;;;;;5022103;28;20042;-54
2022/05/10 16:30:14;;;;;;;8.75;2.03;;;21.70;99.90;;;;;;5023417;28;20045;-45
2022/05/10 16:32:44;;;;;;;4.25;1.50;;;21.70;99.90;;;;;;5023962;28;20414;-43
2022/05/10 16:35:12;;;;;;;5.68;2.00;;;21.70;99.90;;;;;;5024536;28;20369;-44
2022/05/10 16:37:39;;;;;;;8.73;1.63;;;21.80;99.90;;;;;;5024041;28;20053;-45
2022/05/10 16:40:08;;;;;;;11.95;2.00;;;;;;;;;;5025201;28;20520;-44
2022/05/10 16:42:36;;;;;;;3.22;1.50;;;;;;;;;;5023675;28;20045;-43
2022/05/10 16:45:04;;;;;;;;;;;;;;;;;;5024054;28;20049;-45
2022/05/10 16:47:32;;;;;;;5.63;1.80;;;;;;;;;;5024892;28;19925;-43
2022/05/10 16:50:03;;;;;;;8.57;1.90;;;;;;;;;;5024800;28;20061;-47
2022/05/10 16:52:31;;;;;;;6.18;1.90;;;;;;;;;;5025526;28;20053;-46
2022/05/10 16:54:59;;;;;;;7.35;1.83;;;;;;;;;;5024298;28;20049;-46
2022/05/10 16:57:29;;;;;;;10.18;2.33;;;;;;;;;;5024791;28;20380;-51
2022/05/10 16:59:57;;;;;;;8.23;2.30;;;;;;;;;;5024408;28;20053;-47
2022/05/10 17:02:27;;;;;;;12.70;2.40;;;;;;;;;;5024924;28;20054;-46
2022/05/10 17:04:55;;;;;;;;;;;;;;;;;;5024633;28;20076;-50
2022/05/10 17:07:23;;;;;;;8.75;2.08;;;;;;;;;;5024465;28;19928;-51
2022/05/10 17:09:51;;;;;;;10.07;2.05;;;;;;;;;;5024040;28;20052;-51
2022/05/10 17:12:19;;;;;;;10.60;2.40;;;;;;;;;;5024788;28;20361;-49
2022/05/10 17:14:46;;;;;;;;;;;21.90;99.90;;;;;;5024291;28;20072;-56
2022/05/10 17:17:16;;;;;;;10.90;2.20;;;22.20;99.90;;;;;;5024265;28;19925;-52
2022/05/10 17:19:46;;;;;;;12.02;2.95;;;22.20;99.90;;;;;;5009444;28;20404;-54
2022/05/10 17:22:14;;;;;;;11.27;2.90;;;22.20;99.90;;;;;;5024759;28;20060;-53
2022/05/10 17:24:42;;;;;;;;;;;22.30;99.90;;;;;;5024405;28;20045;-53
2022/05/10 17:27:23;;;;;;;6.90;2.58;;;22.30;99.90;;;;;;5024426;28;19921;-53
2022/05/10 17:29:57;;;;;;;9.70;2.03;;;22.30;99.90;;;;;;5023649;28;20401;-49
2022/05/10 17:32:25;;;;;;;6.78;2.25;;;22.40;99.90;;;;;;5022099;28;20049;-46
2022/05/10 17:34:54;;;;;;;6.50;1.95;;;22.40;99.90;;;;;;5023618;28;20049;-49
2022/05/10 17:37:22;;;;;;;7.75;2.20;;;22.40;99.90;;;;;;5024085;28;20709;-47
2022/05/10 17:39:49;;;;;;;;;;;22.40;99.90;;;;;;5024470;28;20057;-50
2022/05/10 17:42:17;;;;;;;13.43;2.25;;;22.40;99.90;;;;;;5022607;28;19925;-51
2022/05/10 17:45:07;;;;;;;9.73;2.25;;;22.40;99.90;;;;;;5021838;28;20041;-45
2022/05/10 17:47:36;;;;;;;7.68;2.08;;;22.50;99.90;;;;;;5019648;28;20054;-46
2022/05/10 17:50:07;;;;;;;9.65;2.10;;;22.50;99.90;;;;;;4983489;28;20405;-52
2022/05/10 17:52:38;;;;;;;5.80;2.00;;;22.50;99.90;;;;;;5018420;28;20046;-49
2022/05/10 17:55:09;;;;;;;5.95;1.70;;;22.50;99.90;;;;;;5021778;28;20046;-46
2022/05/10 17:57:42;;;;;;;9.88;2.20;;;22.40;99.90;;;;;;5023178;28;20049;-48
2022/05/10 18:00:19;;;;;;;6.90;1.88;;;22.40;99.90;;;;;;5022984;28;20049;-46
2022/05/10 18:02:48;;;;;;;;;;;22.50;99.90;;;;;;5023611;28;20049;-44
2022/05/10 18:05:19;;;;;;;6.60;1.70;;;22.40;99.90;;;;;;5023437;28;19937;-49
2022/05/10 18:07:47;;;;;;;8.90;1.95;;;22.40;99.90;;;;;;5023080;28;20087;-47
2022/05/10 18:10:15;;;;;;;8.98;1.88;;;22.40;99.90;;;;;;5023442;28;20053;-47
2022/05/10 18:12:43;;;;;;;9.13;2.13;;;22.40;99.90;;;;;;5023527;28;20492;-44
2022/05/10 18:15:11;;;;;;;6.72;1.73;;;22.40;99.90;;;;;;5023385;28;20054;-50
2022/05/10 18:17:39;;;;;;;5.10;1.67;;;22.40;99.90;;;;;;5022767;28;20049;-49
2022/05/10 18:20:07;;;;;;;7.15;1.92;;;22.30;99.90;;;;;;5025310;28;20289;-47
2022/05/10 18:22:35;;;;;;;8.07;1.67;;;22.40;99.90;;;;;;5024823;28;20056;-48
2022/05/10 18:25:03;;;;;;;8.38;1.70;;;22.30;99.90;;;;;;5025737;28;20054;-46
2022/05/10 18:27:31;;;;;;;9.70;2.03;;;22.30;99.90;;;;;;5024884;28;20046;-49
2022/05/10 18:29:59;;;;;;;7.95;2.00;;;22.30;99.90;;;;;;5011592;28;20495;-48
2022/05/10 18:32:26;;;;;;;6.57;1.75;;;22.30;99.90;;;;;;5026400;28;20041;-46
2022/05/10 18:34:54;;;;;;;4.30;1.48;;;22.30;99.90;;;;;;5026104;28;20177;-44
2022/05/10 18:37:22;;;;;;;8.65;1.65;;;22.30;99.90;;;;;;5025693;28;20500;-48
2022/05/10 18:39:49;;;;;;;10.38;1.48;;;22.30;99.90;;;;;;5025579;28;20057;-53
2022/05/10 18:42:17;;;;;;;7.40;1.63;;;22.30;99.90;;;;;;5008290;28;20050;-45
2022/05/10 18:44:45;;;;;;;7.57;1.80;;;22.20;99.90;;;;;;5022299;28;20053;-45
2022/05/10 18:47:13;;;;;;;5.88;1.55;;;22.30;99.90;;;;;;5026477;28;20049;-52
2022/05/10 18:49:41;;;;;;;;;;;22.20;99.90;;;;;;5026893;28;20503;-45
2022/05/10 18:52:08;;;;;;;7.03;1.75;;;22.20;99.90;;;;;;5026305;28;19932;-46
2022/05/10 18:54:36;;;;;;;7.63;1.65;;;22.20;99.90;;;;;;5026123;28;20068;-42
2022/05/10 18:57:04;;;;;;;9.77;1.52;;;22.30;99.90;;;;;;5025889;28;20049;-56
2022/05/10 18:59:31;;;;;;;14.65;2.15;;;22.20;99.90;;;;;;5023126;28;20060;-56
2022/05/10 19:01:59;;;;;;;12.27;2.13;;;22.20;99.90;;;;;;5002903;28;20049;-48
2022/05/10 19:04:27;;;;;;;7.57;1.63;;;22.30;99.90;;;;;;5016025;28;20053;-53
2022/05/10 19:06:55;;;;;;;11.55;2.10;;;22.30;99.90;;;;;;5021674;28;20060;-50
2022/05/10 19:09:24;;;;;;;8.90;2.10;;;22.30;99.90;;;;;;5021915;28;20069;-50
2022/05/10 19:11:55;;;;;;;7.03;1.80;;;22.30;99.90;;;;;;5022593;28;20042;-49
2022/05/10 19:14:27;;;;;;;10.75;1.95;;;22.30;99.90;;;;;;5022438;28;20058;-49
2022/05/10 19:16:57;;;;;;;7.80;2.03;;;22.30;99.90;;;;;;5022897;28;20042;-46
2022/05/10 19:19:26;;;;;;;;;;;22.20;99.90;;;;;;5022030;28;20149;-44
2022/05/10 19:21:53;;;;;;;9.35;1.50;;;22.30;99.90;;;;;;5022478;28;19921;-47
2022/05/10 19:24:21;;;;;;;6.40;1.50;;;22.30;99.90;;;;;;5022410;28;20388;-46
2022/05/10 19:26:50;;;;;;;3.58;1.30;;;22.30;99.90;;;;;;5022380;28;20222;-50
2022/05/10 19:29:22;;;;;;;13.23;1.88;;;22.30;99.90;;;;;;5021636;28;20409;-42
2022/05/10 19:31:54;;;;;;;7.10;1.80;;;22.30;99.90;;;;;;5022309;28;20399;-50
2022/05/10 19:34:22;;;;;;;9.45;1.70;;;22.30;99.90;;;;;;5021462;28;20065;-44
2022/05/10 19:36:49;;;;;;;7.03;1.83;;;22.30;99.90;;;;;;5021991;28;20068;-48
2022/05/10 19:39:17;;;;;;;12.23;2.03;;;22.30;99.90;;;;;;5022037;28;20052;-53
2022/05/10 19:41:44;;;;;;;11.77;2.33;;;22.30;99.90;;;;;;5020936;28;20042;-53
2022/05/10 19:44:13;;;;;;;10.35;1.90;;;22.60;99.90;;;;;;5021512;28;20046;-56
2022/05/10 19:46:41;;;;;;;8.32;1.73;;;22.70;99.90;;;;;;5019144;28;20064;-52
2022/05/10 19:49:09;;;;;;;;;;;22.70;99.90;;;;;;5022979;28;20057;-50
2022/05/10 19:51:37;;;;;;;11.13;2.22;;;22.60;99.90;;;;;;5022315;28;20322;-55
2022/05/10 19:54:06;;;;;;;8.80;1.98;;;22.60;99.90;;;;;;5020478;28;20052;-56
2022/05/10 19:56:33;;;;;;;8.30;1.60;;;22.60;99.90;;;;;;5026191;28;20068;-56
2022/05/10 19:59:04;;;;;;;6.45;1.67;;;22.60;99.90;;;;;;5025767;28;20053;-58
2022/05/10 20:07:05;;;;;;;6.55;1.48;;;22.60;99.90;;;;;;5026049;28;20053;-53
2022/05/10 20:09:33;;;;;;;6.70;1.58;;;22.60;99.90;;;;;;5024448;28;20042;-46
2022/05/10 20:12:00;;;;;;;9.57;1.80;;;22.60;99.90;;;;;;5026226;28;20049;-54
2022/05/10 20:14:28;;;;;;;5.75;1.80;;;22.60;99.90;;;;;;5025384;28;20061;-50
2022/05/10 20:16:56;;;;;;;10.07;1.80;;;22.80;99.90;;;;;;5025205;28;20050;-52
2022/05/10 20:19:28;;;;;;;9.50;1.90;;;22.70;99.90;;;;;;5026090;28;20045;-53
2022/05/10 20:21:56;;;;;;;10.15;1.95;;;22.80;99.90;;;;;;5020064;28;20068;-53
2022/05/10 20:24:25;;;;;;;6.93;1.70;;;22.80;99.90;;;;;;4532371;28;59313;-54
2022/05/10 20:27:35;;;;;;;8.25;1.63;;;22.80;99.90;;;;;;4871568;27;20508;-51
2022/05/10 20:30:05;;;;;;;8.82;1.60;;;22.80;99.90;;;;;;4947132;28;20456;-52
2022/05/10 20:32:34;;;;;;;5.03;1.58;;;22.80;99.90;;;;;;4997442;28;20063;-48
2022/05/10 20:35:02;;;;;;;;;;;22.70;99.90;;;;;;4997371;28;20050;-55
2022/05/10 20:37:30;;;;;;;5.38;1.50;;;22.70;99.90;;;;;;4998301;28;19921;-52
2022/05/10 20:39:58;;;;;;;7.97;1.80;;;22.70;99.90;;;;;;4999683;28;20061;-52
2022/05/10 20:42:26;;;;;;;8.45;1.70;;;22.70;99.90;;;;;;4999730;28;20061;-52
2022/05/10 20:44:53;;;;;;;10.82;1.80;;;22.70;99.90;;;;;;4999243;28;20820;-54
2022/05/10 20:47:21;;;;;;;9.05;2.03;;;22.70;99.90;;;;;;4999267;28;20505;-53
2022/05/10 20:49:49;;;;;;;9.02;2.08;;;22.70;99.90;;;;;;4993345;28;20042;-45
2022/05/10 20:52:17;;;;;;;;;;;22.70;99.90;;;;;;4990923;28;20046;-45
2022/05/10 20:54:45;;;;;;;7.88;2.08;;;22.80;99.90;;;;;;4994245;28;19929;-43
2022/05/10 20:57:13;;;;;;;;;;;22.90;99.90;;;;;;4999627;28;20038;-45
2022/05/10 20:59:41;;;;;;;6.93;1.58;;;22.80;99.90;;;;;;4985614;28;19926;-43
2022/05/10 21:02:08;;;;;;;9.93;1.98;;;22.80;99.90;;;;;;4981369;28;20061;-44
2022/05/10 21:04:37;;;;;;;10.10;1.70;;;22.80;99.90;;;;;;4995385;28;20065;-44
2022/05/10 21:09:50;;;;;;;9.52;1.90;;;22.70;99.90;;;;;;4980099;28;20058;-45
2022/05/10 21:12:19;;;;;;;7.35;1.73;;;22.70;99.90;;;;;;4995720;28;20468;-46
2022/05/10 21:15:06;;;;;;;9.33;1.70;;;22.70;99.90;;;;;;4993024;28;20057;-48
